createdAt,value
2018-09-28T00:00:37.644Z,24.50
2018-09-28T00:03:05.808Z,24.50
2018-09-28T00:05:33.980Z,24.50
2018-09-28T00:08:02.154Z,24.50
2018-09-28T00:10:30.343Z,24.50
2018-09-28T00:12:58.557Z,24.50
2018-09-28T00:15:26.705Z,24.40
2018-09-28T00:17:54.851Z,24.40
2018-09-28T00:20:23.056Z,24.40
2018-09-28T00:22:51.198Z,24.40
2018-09-28T00:25:19.412Z,24.40
2018-09-28T00:27:47.570Z,24.50
2018-09-28T00:30:15.705Z,24.40
2018-09-28T00:32:43.877Z,24.40
2018-09-28T00:35:12.042Z,24.40
2018-09-28T00:37:40.393Z,24.40
2018-09-28T00:40:08.685Z,24.40
2018-09-28T00:42:36.820Z,24.30
2018-09-28T00:45:04.999Z,24.40
2018-09-28T00:47:33.157Z,24.40
2018-09-28T00:50:01.321Z,24.30
2018-09-28T00:52:29.490Z,24.40
2018-09-28T00:54:57.668Z,24.30
2018-09-28T00:57:25.849Z,24.30
2018-09-28T00:59:53.988Z,24.40
2018-09-28T01:02:22.126Z,24.40
2018-09-28T01:04:50.273Z,24.30
2018-09-28T01:07:18.534Z,24.40
2018-09-28T01:09:46.669Z,24.30
2018-09-28T01:12:14.804Z,24.30
2018-09-28T01:14:42.954Z,24.30
2018-09-28T01:17:11.172Z,24.30
2018-09-28T01:19:39.342Z,24.30
2018-09-28T01:22:07.623Z,24.30
2018-09-28T01:24:35.776Z,24.20
2018-09-28T01:27:03.938Z,24.20
2018-09-28T01:29:32.260Z,24.20
2018-09-28T01:32:00.421Z,24.20
2018-09-28T01:34:28.556Z,24.10
2018-09-28T01:36:56.749Z,24.10
2018-09-28T01:39:24.910Z,24.10
2018-09-28T01:41:53.081Z,24.20
2018-09-28T01:44:21.237Z,24.10
2018-09-28T01:46:49.389Z,24.10
2018-09-28T01:49:17.523Z,24.10
2018-09-28T01:51:45.640Z,24.10
2018-09-28T01:54:13.801Z,24.00
2018-09-28T01:56:42.036Z,24.10
2018-09-28T01:59:10.212Z,24.10
2018-09-28T02:01:38.377Z,24.00
2018-09-28T02:04:06.585Z,24.00
2018-09-28T02:06:34.815Z,24.00
2018-09-28T02:09:03.036Z,24.00
2018-09-28T02:11:31.923Z,24.00
2018-09-28T02:14:00.070Z,24.00
2018-09-28T02:16:28.308Z,24.00
2018-09-28T02:18:56.509Z,24.00
2018-09-28T02:21:24.685Z,24.00
2018-09-28T02:23:52.823Z,24.00
2018-09-28T02:26:20.974Z,24.00
2018-09-28T02:28:49.147Z,24.00
2018-09-28T02:31:17.279Z,24.00
2018-09-28T02:33:45.419Z,24.00
2018-09-28T02:36:13.596Z,24.00
2018-09-28T02:38:41.724Z,24.00
2018-09-28T02:41:10.617Z,24.00
2018-09-28T02:43:38.758Z,23.90
2018-09-28T02:46:07.272Z,23.90
2018-09-28T02:48:35.452Z,24.00
2018-09-28T02:51:03.587Z,23.90
2018-09-28T02:53:31.721Z,23.90
2018-09-28T02:55:59.863Z,23.90
2018-09-28T02:58:27.988Z,23.90
2018-09-28T03:00:56.125Z,23.90
2018-09-28T03:03:24.272Z,23.90
2018-09-28T03:05:52.396Z,23.90
2018-09-28T03:08:20.531Z,23.80
2018-09-28T03:10:48.681Z,23.80
2018-09-28T03:13:16.790Z,23.80
2018-09-28T03:15:44.970Z,23.80
2018-09-28T03:18:13.130Z,23.80
2018-09-28T03:20:41.256Z,23.80
2018-09-28T03:23:09.386Z,23.80
2018-09-28T03:25:37.521Z,23.80
2018-09-28T03:28:05.860Z,23.80
2018-09-28T03:30:33.978Z,23.80
2018-09-28T03:33:02.122Z,23.80
2018-09-28T03:35:30.263Z,23.80
2018-09-28T03:37:58.388Z,23.80
2018-09-28T03:40:26.562Z,23.70
2018-09-28T03:42:54.665Z,23.80
2018-09-28T03:45:22.798Z,23.70
2018-09-28T03:47:51.048Z,23.80
2018-09-28T03:50:19.188Z,23.70
2018-09-28T03:52:47.372Z,23.70
2018-09-28T03:55:15.489Z,23.70
2018-09-28T03:57:43.642Z,23.80
2018-09-28T04:00:12.022Z,23.70
2018-09-28T04:02:40.700Z,23.70
2018-09-28T04:05:08.824Z,23.70
2018-09-28T04:07:37.169Z,23.70
2018-09-28T04:10:06.202Z,23.70
2018-09-28T04:12:34.488Z,23.70
2018-09-28T04:15:02.772Z,23.70
2018-09-28T04:17:30.888Z,23.60
2018-09-28T04:19:59.261Z,23.60
2018-09-28T04:22:28.088Z,23.60
2018-09-28T04:24:56.260Z,23.60
2018-09-28T04:27:24.412Z,23.60
2018-09-28T04:29:52.574Z,23.60
2018-09-28T04:32:20.754Z,23.60
2018-09-28T04:34:48.854Z,23.60
2018-09-28T04:37:16.964Z,23.60
2018-09-28T04:39:45.116Z,23.60
2018-09-28T04:42:13.256Z,23.60
2018-09-28T04:44:41.407Z,23.60
2018-09-28T04:47:09.693Z,23.60
2018-09-28T04:49:37.941Z,23.60
2018-09-28T04:52:06.147Z,23.60
2018-09-28T04:54:34.272Z,23.60
2018-09-28T04:57:02.480Z,23.60
2018-09-28T04:59:30.539Z,23.60
2018-09-28T05:01:58.674Z,23.60
2018-09-28T05:04:26.812Z,23.60
2018-09-28T05:06:54.936Z,23.60
2018-09-28T05:09:23.069Z,23.60
2018-09-28T05:11:51.197Z,23.60
2018-09-28T05:14:19.388Z,23.60
2018-09-28T05:16:47.519Z,23.70
2018-09-28T05:19:15.655Z,23.70
2018-09-28T05:21:43.775Z,23.70
2018-09-28T05:24:11.907Z,23.70
2018-09-28T05:26:40.070Z,23.70
2018-09-28T05:29:08.200Z,23.70
2018-09-28T05:31:36.393Z,23.60
2018-09-28T05:34:04.527Z,23.60
2018-09-28T05:36:32.653Z,23.60
2018-09-28T05:39:00.877Z,23.70
2018-09-28T05:41:29.048Z,23.70
2018-09-28T05:43:57.202Z,23.70
2018-09-28T05:46:25.414Z,23.70
2018-09-28T05:48:53.548Z,23.70
2018-09-28T05:51:21.740Z,23.70
2018-09-28T05:53:49.867Z,23.70
2018-09-28T05:56:17.983Z,23.80
2018-09-28T05:58:51.540Z,23.70
2018-09-28T06:01:24.888Z,23.80
2018-09-28T06:03:58.375Z,23.80
2018-09-28T06:09:01.188Z,23.70
2018-09-28T06:11:29.308Z,23.70
2018-09-28T06:13:57.522Z,23.80
2018-09-28T06:16:25.660Z,23.80
2018-09-28T06:18:53.862Z,23.90
2018-09-28T06:21:21.976Z,24.00
2018-09-28T06:23:50.097Z,23.90
2018-09-28T06:26:18.229Z,23.90
2018-09-28T06:28:46.376Z,23.90
2018-09-28T06:31:14.541Z,24.00
2018-09-28T06:33:42.680Z,24.00
2018-09-28T06:36:10.848Z,24.10
2018-09-28T06:38:38.929Z,24.10
2018-09-28T06:41:07.100Z,24.00
2018-09-28T06:43:35.239Z,24.00
2018-09-28T06:46:03.376Z,23.90
2018-09-28T06:48:31.497Z,24.00
2018-09-28T06:50:59.624Z,24.00
2018-09-28T06:53:27.772Z,24.00
2018-09-28T06:55:55.901Z,24.00
2018-09-28T06:58:24.012Z,24.10
2018-09-28T07:00:52.131Z,24.10
2018-09-28T07:03:20.252Z,24.10
2018-09-28T07:05:48.411Z,24.10
2018-09-28T07:08:16.512Z,24.00
2018-09-28T07:10:44.611Z,24.10
2018-09-28T07:13:12.754Z,24.10
2018-09-28T07:15:40.895Z,24.10
2018-09-28T07:18:09.077Z,24.10
2018-09-28T07:20:37.190Z,24.00
2018-09-28T07:23:05.348Z,23.90
2018-09-28T07:25:33.484Z,23.90
2018-09-28T07:28:01.612Z,23.80
2018-09-28T07:30:29.840Z,23.80
2018-09-28T07:32:57.996Z,23.70
2018-09-28T07:35:26.122Z,23.80
2018-09-28T07:37:54.219Z,23.80
2018-09-28T07:40:22.351Z,23.80
2018-09-28T07:42:50.480Z,23.90
2018-09-28T07:45:18.592Z,23.90
2018-09-28T07:47:46.759Z,24.00
2018-09-28T07:50:14.883Z,24.20
2018-09-28T07:52:43.091Z,24.20
2018-09-28T07:55:11.683Z,24.30
2018-09-28T07:57:39.860Z,24.20
2018-09-28T08:00:08.002Z,24.20
2018-09-28T08:02:36.116Z,24.10
2018-09-28T08:05:04.328Z,24.20
2018-09-28T08:07:32.478Z,24.10
2018-09-28T08:10:00.617Z,24.10
2018-09-28T08:12:28.771Z,24.10
2018-09-28T08:14:56.944Z,24.20
2018-09-28T08:17:25.069Z,24.40
2018-09-28T08:19:53.214Z,24.60
2018-09-28T08:22:21.385Z,24.90
2018-09-28T08:24:49.527Z,25.00
2018-09-28T08:27:17.732Z,24.80
2018-09-28T08:29:45.875Z,24.70
2018-09-28T08:32:14.012Z,24.50
2018-09-28T08:34:42.159Z,24.60
2018-09-28T08:37:10.336Z,24.80
2018-09-28T08:39:38.500Z,24.80
2018-09-28T08:42:07.376Z,24.80
2018-09-28T08:44:35.576Z,24.80
2018-09-28T08:47:03.759Z,24.80
2018-09-28T08:49:31.878Z,24.80
2018-09-28T08:52:00.040Z,24.90
2018-09-28T08:54:28.243Z,24.70
2018-09-28T08:56:56.382Z,24.60
2018-09-28T08:59:24.622Z,24.60
2018-09-28T09:01:52.749Z,24.50
2018-09-28T09:04:20.887Z,24.50
2018-09-28T09:06:49.097Z,24.40
2018-09-28T09:09:17.249Z,24.40
2018-09-28T09:11:45.374Z,24.40
2018-09-28T09:14:13.499Z,24.50
2018-09-28T09:16:41.629Z,24.60
2018-09-28T09:19:09.781Z,24.70
2018-09-28T09:21:37.922Z,25.10
2018-09-28T09:24:06.217Z,25.40
2018-09-28T09:26:34.329Z,25.40
2018-09-28T09:29:02.465Z,25.20
2018-09-28T09:31:30.592Z,25.00
2018-09-28T09:33:58.731Z,24.80
2018-09-28T09:36:26.977Z,24.70
2018-09-28T09:38:55.075Z,24.80
2018-09-28T09:41:23.230Z,24.80
2018-09-28T09:43:51.427Z,25.00
2018-09-28T09:46:19.564Z,25.20
2018-09-28T09:48:47.732Z,25.60
2018-09-28T09:51:15.864Z,25.60
2018-09-28T09:53:43.997Z,25.60
2018-09-28T09:56:12.174Z,25.80
2018-09-28T09:58:40.453Z,25.90
2018-09-28T10:01:08.905Z,26.00
2018-09-28T10:03:42.506Z,26.00
2018-09-28T10:06:11.114Z,26.10
2018-09-28T10:08:39.250Z,26.40
2018-09-28T10:11:07.435Z,26.60
2018-09-28T10:13:35.610Z,26.80
2018-09-28T10:16:03.736Z,27.10
2018-09-28T10:18:31.892Z,27.30
2018-09-28T10:21:00.040Z,27.40
2018-09-28T10:23:28.200Z,27.60
2018-09-28T10:25:56.363Z,27.80
2018-09-28T10:28:24.519Z,27.80
2018-09-28T10:30:52.637Z,28.00
2018-09-28T10:33:20.933Z,27.80
2018-09-28T10:35:49.081Z,27.90
2018-09-28T10:38:17.276Z,28.10
2018-09-28T10:40:45.507Z,28.40
2018-09-28T10:43:13.604Z,28.70
2018-09-28T10:45:41.820Z,29.00
2018-09-28T10:48:09.923Z,29.30
2018-09-28T10:50:38.092Z,29.50
2018-09-28T10:53:06.233Z,29.60
2018-09-28T10:55:34.392Z,29.70
2018-09-28T10:58:02.570Z,29.90
2018-09-28T11:00:30.865Z,30.30
2018-09-28T11:02:58.988Z,30.60
2018-09-28T11:05:27.161Z,30.90
2018-09-28T11:07:55.296Z,31.20
2018-09-28T11:10:23.550Z,31.20
2018-09-28T11:12:51.569Z,31.60
2018-09-28T11:15:19.801Z,33.20
2018-09-28T11:17:47.875Z,33.90
2018-09-28T11:20:15.990Z,36.30
2018-09-28T11:22:44.147Z,38.00
2018-09-28T11:25:12.258Z,40.00
2018-09-28T11:27:40.471Z,41.20
2018-09-28T11:30:08.588Z,42.20
2018-09-28T11:32:36.717Z,43.10
2018-09-28T11:35:04.856Z,44.10
2018-09-28T11:37:33.042Z,44.90
2018-09-28T11:40:01.145Z,44.60
2018-09-28T11:42:29.269Z,40.80
2018-09-28T11:44:57.393Z,38.20
2018-09-28T11:47:25.549Z,37.80
2018-09-28T11:49:53.679Z,40.20
2018-09-28T11:52:21.820Z,42.70
2018-09-28T11:54:49.928Z,44.60
2018-09-28T11:57:18.123Z,45.60
2018-09-28T11:59:46.348Z,42.00
2018-09-28T12:02:14.509Z,38.50
2018-09-28T12:04:42.620Z,36.20
2018-09-28T12:07:10.807Z,34.50
2018-09-28T12:09:38.974Z,33.40
2018-09-28T12:12:07.098Z,32.40
2018-09-28T12:14:35.221Z,31.40
2018-09-28T12:17:03.341Z,30.70
2018-09-28T12:19:31.541Z,30.10
2018-09-28T12:21:59.685Z,29.60
2018-09-28T12:24:27.928Z,29.20
2018-09-28T12:26:55.988Z,28.90
2018-09-28T12:29:24.148Z,28.70
2018-09-28T12:31:52.287Z,28.70
2018-09-28T12:34:20.445Z,28.70
2018-09-28T12:36:48.714Z,28.90
2018-09-28T12:39:16.946Z,28.90
2018-09-28T12:41:44.943Z,28.90
2018-09-28T12:44:13.112Z,28.90
2018-09-28T12:46:41.192Z,28.90
2018-09-28T12:49:09.356Z,28.70
2018-09-28T12:51:37.638Z,28.50
2018-09-28T12:54:05.843Z,28.80
2018-09-28T12:56:33.931Z,28.60
2018-09-28T12:59:02.079Z,28.40
2018-09-28T13:01:30.213Z,28.40
2018-09-28T13:03:58.399Z,28.80
2018-09-28T13:06:26.608Z,29.10
2018-09-28T13:08:54.696Z,29.90
2018-09-28T13:11:22.890Z,29.90
2018-09-28T13:13:51.032Z,34.30
2018-09-28T13:16:19.196Z,38.50
2018-09-28T13:18:47.337Z,41.10
2018-09-28T13:21:15.521Z,42.80
2018-09-28T13:23:43.704Z,44.20
2018-09-28T13:26:11.914Z,44.80
2018-09-28T13:28:39.992Z,45.50
2018-09-28T13:31:08.149Z,46.20
2018-09-28T13:33:36.344Z,43.30
2018-09-28T13:36:04.584Z,40.60
2018-09-28T13:38:32.906Z,38.10
2018-09-28T13:41:00.884Z,36.70
2018-09-28T13:43:29.004Z,34.80
2018-09-28T13:45:57.211Z,33.20
2018-09-28T13:48:25.392Z,31.90
2018-09-28T13:50:53.529Z,31.00
2018-09-28T13:53:21.684Z,30.40
2018-09-28T13:55:49.892Z,29.90
2018-09-28T13:58:18.057Z,30.00
2018-09-28T14:00:46.359Z,30.30
2018-09-28T14:03:14.452Z,30.30
2018-09-28T14:05:42.616Z,30.80
2018-09-28T14:08:10.814Z,31.20
2018-09-28T14:10:39.034Z,31.70
2018-09-28T14:13:07.470Z,31.80
2018-09-28T14:15:35.640Z,31.50
2018-09-28T14:18:03.773Z,31.80
2018-09-28T14:20:31.990Z,33.50
2018-09-28T14:23:00.088Z,33.70
2018-09-28T14:25:28.255Z,36.40
2018-09-28T14:27:56.415Z,38.10
2018-09-28T14:30:24.621Z,39.70
2018-09-28T14:32:52.860Z,40.70
2018-09-28T14:35:21.033Z,40.70
2018-09-28T14:37:49.162Z,37.90
2018-09-28T14:40:17.346Z,39.30
2018-09-28T14:42:45.561Z,37.20
2018-09-28T14:45:13.910Z,35.50
2018-09-28T14:47:42.052Z,34.10
2018-09-28T14:50:10.215Z,33.10
2018-09-28T14:52:38.352Z,32.30
2018-09-28T14:55:06.497Z,31.60
2018-09-28T14:57:35.435Z,30.90
2018-09-28T15:00:03.919Z,30.30
2018-09-28T15:02:32.118Z,29.60
2018-09-28T15:05:00.268Z,29.00
2018-09-28T15:07:28.708Z,28.60
2018-09-28T15:09:56.959Z,28.30
2018-09-28T15:12:25.165Z,28.00
2018-09-28T15:14:53.228Z,27.80
2018-09-28T15:17:21.328Z,27.60
2018-09-28T15:19:49.503Z,27.50
2018-09-28T15:22:17.637Z,27.40
2018-09-28T15:24:45.767Z,27.30
2018-09-28T15:27:14.230Z,27.30
2018-09-28T15:29:43.596Z,27.20
2018-09-28T15:32:12.150Z,27.20
2018-09-28T15:34:40.297Z,27.10
2018-09-28T15:37:08.457Z,27.10
2018-09-28T15:39:36.632Z,27.20
2018-09-28T15:42:04.884Z,27.30
2018-09-28T15:44:33.036Z,27.30
2018-09-28T15:47:01.236Z,27.30
2018-09-28T15:49:29.415Z,27.30
2018-09-28T15:51:57.829Z,27.20
2018-09-28T15:54:25.989Z,27.20
2018-09-28T15:56:54.246Z,27.20
2018-09-28T15:59:22.354Z,27.00
2018-09-28T16:01:50.533Z,27.00
2018-09-28T16:04:18.883Z,27.00
2018-09-28T16:06:47.036Z,27.00
2018-09-28T16:09:15.240Z,26.90
2018-09-28T16:11:43.468Z,26.90
2018-09-28T16:14:11.612Z,26.80
2018-09-28T16:16:40.166Z,26.80
2018-09-28T16:19:08.308Z,26.70
2018-09-28T16:21:36.505Z,26.70
2018-09-28T16:24:04.661Z,26.60
2018-09-28T16:26:32.823Z,26.50
2018-09-28T16:29:01.079Z,26.40
2018-09-28T16:31:29.239Z,26.40
2018-09-28T16:33:57.384Z,26.40
2018-09-28T16:36:25.572Z,26.30
2018-09-28T16:38:53.784Z,26.30
2018-09-28T16:41:21.928Z,26.20
2018-09-28T16:43:50.092Z,26.20
2018-09-28T16:46:18.237Z,26.10
2018-09-28T16:48:46.371Z,26.10
2018-09-28T16:51:14.520Z,26.10
2018-09-28T16:53:42.765Z,26.10
2018-09-28T16:56:10.885Z,26.00
2018-09-28T16:58:39.009Z,25.90
2018-09-28T17:01:07.114Z,25.90
2018-09-28T17:03:35.274Z,25.90
2018-09-28T17:06:03.394Z,25.80
2018-09-28T17:08:31.521Z,25.80
2018-09-28T17:10:59.671Z,25.80
2018-09-28T17:13:27.811Z,25.70
2018-09-28T17:15:55.957Z,25.70
2018-09-28T17:18:24.121Z,25.60
2018-09-28T17:20:52.256Z,25.60
2018-09-28T17:23:20.394Z,25.50
2018-09-28T17:25:48.559Z,25.30
2018-09-28T17:28:16.984Z,25.30
2018-09-28T17:30:45.170Z,25.20
2018-09-28T17:33:13.329Z,25.20
2018-09-28T17:35:41.484Z,25.20
2018-09-28T17:38:09.873Z,25.10
2018-09-28T17:40:38.047Z,25.00
2018-09-28T17:43:06.255Z,25.00
2018-09-28T17:45:34.400Z,25.00
2018-09-28T17:48:02.584Z,24.90
2018-09-28T17:50:30.791Z,24.80
2018-09-28T17:52:59.032Z,24.80
2018-09-28T17:55:27.239Z,24.80
2018-09-28T17:57:55.425Z,24.70
2018-09-28T18:00:23.608Z,24.70
2018-09-28T18:02:51.786Z,24.70
2018-09-28T18:05:20.001Z,24.60
2018-09-28T18:07:48.183Z,24.60
2018-09-28T18:10:16.355Z,24.60
2018-09-28T18:12:44.819Z,24.60
2018-09-28T18:15:12.987Z,24.60
2018-09-28T18:17:41.147Z,24.60
2018-09-28T18:20:10.140Z,24.50
2018-09-28T18:22:38.403Z,24.60
2018-09-28T18:25:06.551Z,24.50
2018-09-28T18:27:35.777Z,24.40
2018-09-28T18:30:04.028Z,24.40
2018-09-28T18:32:32.280Z,24.40
2018-09-28T18:35:00.460Z,24.30
2018-09-28T18:37:28.598Z,24.30
2018-09-28T18:39:56.777Z,24.30
2018-09-28T18:42:24.945Z,24.30
2018-09-28T18:44:53.089Z,24.30
2018-09-28T18:47:21.244Z,24.30
2018-09-28T18:49:49.664Z,24.30
2018-09-28T18:52:17.816Z,24.40
2018-09-28T18:54:46.030Z,24.30
2018-09-28T18:57:14.173Z,24.30
2018-09-28T18:59:42.337Z,24.30
2018-09-28T19:02:11.084Z,24.30
2018-09-28T19:04:39.235Z,24.30
2018-09-28T19:07:07.388Z,24.20
2018-09-28T19:09:35.576Z,24.20
2018-09-28T19:12:03.743Z,24.20
2018-09-28T19:14:31.904Z,24.20
2018-09-28T19:17:00.050Z,24.20
2018-09-28T19:19:28.192Z,24.10
2018-09-28T19:21:56.317Z,24.10
2018-09-28T19:24:24.490Z,24.00
2018-09-28T19:26:52.612Z,24.00
2018-09-28T19:29:20.761Z,24.00
2018-09-28T19:31:48.899Z,24.00
2018-09-28T19:34:17.024Z,24.00
2018-09-28T19:36:45.160Z,24.00
2018-09-28T19:39:13.301Z,23.90
2018-09-28T19:41:41.461Z,24.00
2018-09-28T19:44:10.137Z,23.90
2018-09-28T19:46:38.301Z,23.90
2018-09-28T19:49:06.485Z,23.90
2018-09-28T19:51:34.601Z,23.90
2018-09-28T19:54:02.733Z,23.90
2018-09-28T19:56:32.179Z,23.90
2018-09-28T19:59:00.346Z,23.80
2018-09-28T20:01:28.506Z,23.80
2018-09-28T20:03:56.636Z,23.80
2018-09-28T20:06:24.902Z,23.80
2018-09-28T20:08:52.992Z,23.70
2018-09-28T20:11:21.186Z,23.70
2018-09-28T20:13:49.336Z,23.70
2018-09-28T20:16:17.497Z,23.70
2018-09-28T20:18:45.660Z,23.70
2018-09-28T20:21:13.796Z,23.60
2018-09-28T20:23:41.955Z,23.60
2018-09-28T20:26:10.116Z,23.60
2018-09-28T20:28:38.376Z,23.60
2018-09-28T20:31:06.512Z,23.60
2018-09-28T20:33:34.668Z,23.60
2018-09-28T20:36:02.790Z,23.50
2018-09-28T20:38:30.932Z,23.50
2018-09-28T20:40:59.075Z,23.50
2018-09-28T20:43:27.201Z,23.50
2018-09-28T20:45:55.318Z,23.50
2018-09-28T20:48:23.471Z,23.60
2018-09-28T20:50:51.577Z,23.60
2018-09-28T20:53:19.720Z,23.60
2018-09-28T20:55:47.876Z,23.60
2018-09-28T20:58:15.982Z,23.60
2018-09-28T21:00:44.165Z,23.60
2018-09-28T21:03:12.284Z,23.60
2018-09-28T21:05:40.412Z,23.60
2018-09-28T21:08:08.531Z,23.60
2018-09-28T21:10:36.693Z,23.60
2018-09-28T21:13:04.817Z,23.60
2018-09-28T21:15:32.944Z,23.60
2018-09-28T21:18:02.240Z,23.60
2018-09-28T21:20:30.397Z,23.60
2018-09-28T21:22:58.527Z,23.60
2018-09-28T21:25:26.661Z,23.70
2018-09-28T21:27:54.820Z,23.60
2018-09-28T21:30:23.021Z,23.60
2018-09-28T21:32:51.181Z,23.60
2018-09-28T21:35:19.352Z,23.60
2018-09-28T21:37:47.526Z,23.60
2018-09-28T21:40:15.672Z,23.60
2018-09-28T21:42:43.795Z,23.60
2018-09-28T21:45:11.948Z,23.70
2018-09-28T21:47:40.060Z,23.60
2018-09-28T21:50:08.204Z,23.70
2018-09-28T21:52:36.365Z,23.70
2018-09-28T21:55:04.540Z,23.70
2018-09-28T21:57:32.708Z,23.70
2018-09-28T22:00:00.851Z,23.70
2018-09-28T22:02:28.976Z,23.70
2018-09-28T22:04:57.124Z,23.60
2018-09-28T22:07:25.275Z,23.70
2018-09-28T22:09:53.453Z,23.70
2018-09-28T22:12:21.572Z,23.60
2018-09-28T22:14:49.700Z,23.60
2018-09-28T22:17:17.830Z,23.60
2018-09-28T22:19:45.966Z,23.60
2018-09-28T22:22:14.073Z,23.60
2018-09-28T22:24:42.220Z,23.60
2018-09-28T22:27:10.336Z,23.60
2018-09-28T22:29:38.464Z,23.50
2018-09-28T22:32:06.640Z,23.60
2018-09-28T22:34:34.781Z,23.60
2018-09-28T22:37:02.915Z,23.60
2018-09-28T22:39:31.116Z,23.60
2018-09-28T22:41:59.292Z,23.60
2018-09-28T22:44:27.436Z,23.60
2018-09-28T22:46:55.610Z,23.50
2018-09-28T22:49:23.769Z,23.50
2018-09-28T22:51:51.897Z,23.50
2018-09-28T22:54:20.017Z,23.50
2018-09-28T22:56:48.152Z,23.50
2018-09-28T22:59:16.456Z,23.50
2018-09-28T23:01:44.597Z,23.40
2018-09-28T23:04:12.731Z,23.50
2018-09-28T23:06:40.869Z,23.50
2018-09-28T23:09:09.637Z,23.40
2018-09-28T23:11:37.825Z,23.50
2018-09-28T23:14:09.045Z,23.40
2018-09-28T23:16:37.156Z,23.40
2018-09-28T23:19:05.324Z,23.50
2018-09-28T23:21:33.449Z,23.40
2018-09-28T23:24:01.602Z,23.40
2018-09-28T23:26:29.773Z,23.40
2018-09-28T23:28:58.157Z,23.40
2018-09-28T23:31:26.289Z,23.40
2018-09-28T23:33:54.412Z,23.30
2018-09-28T23:36:22.544Z,23.40
2018-09-28T23:38:50.668Z,23.30
2018-09-28T23:41:18.808Z,23.30
2018-09-28T23:43:46.928Z,23.30
2018-09-28T23:46:15.075Z,23.30
2018-09-28T23:48:43.321Z,23.20
2018-09-28T23:51:11.776Z,23.20
2018-09-28T23:53:39.913Z,23.20
2018-09-28T23:56:08.083Z,23.20
2018-09-28T23:58:36.224Z,23.20
